sensor_id;sensor_type;location;lat;lon;timestamp;P1;durP1;ratioP1;P2;durP2;ratioP2
21754;SDS011;11039;50.028;19.938;2023-04-24T00:00:10;7.70;;;6.15;;
21754;SDS011;11039;50.028;19.938;2023-04-24T00:02:40;7.55;;;6.50;;
21754;SDS011;11039;50.028;19.938;2023-04-24T00:05:06;8.82;;;7.10;;
21754;SDS011;11039;50.028;19.938;2023-04-24T00:07:33;7.35;;;6.10;;
21754;SDS011;11039;50.028;19.938;2023-04-24T00:09:59;10.07;;;6.45;;
21754;SDS011;11039;50.028;19.938;2023-04-24T00:12:25;7.40;;;6.63;;
21754;SDS011;11039;50.028;19.938;2023-04-24T00:14:52;11.20;;;6.22;;
21754;SDS011;11039;50.028;19.938;2023-04-24T00:17:18;11.02;;;6.28;;
21754;SDS011;11039;50.028;19.938;2023-04-24T00:19:47;9.02;;;6.75;;
21754;SDS011;11039;50.028;19.938;2023-04-24T00:22:15;10.52;;;6.70;;
21754;SDS011;11039;50.028;19.938;2023-04-24T00:24:41;9.57;;;6.95;;
21754;SDS011;11039;50.028;19.938;2023-04-24T00:27:07;8.50;;;6.43;;
21754;SDS011;11039;50.028;19.938;2023-04-24T00:29:33;8.10;;;6.40;;
21754;SDS011;11039;50.028;19.938;2023-04-24T00:31:59;8.93;;;6.85;;
21754;SDS011;11039;50.028;19.938;2023-04-24T00:34:25;9.00;;;6.65;;
21754;SDS011;11039;50.028;19.938;2023-04-24T00:36:51;9.98;;;6.22;;
21754;SDS011;11039;50.028;19.938;2023-04-24T00:39:21;8.23;;;6.43;;
21754;SDS011;11039;50.028;19.938;2023-04-24T00:41:47;8.52;;;6.70;;
21754;SDS011;11039;50.028;19.938;2023-04-24T00:44:14;9.27;;;6.53;;
21754;SDS011;11039;50.028;19.938;2023-04-24T00:46:40;9.88;;;7.32;;
21754;SDS011;11039;50.028;19.938;2023-04-24T00:49:06;10.68;;;7.00;;
21754;SDS011;11039;50.028;19.938;2023-04-24T00:51:32;9.93;;;6.82;;
21754;SDS011;11039;50.028;19.938;2023-04-24T00:53:59;8.20;;;6.03;;
21754;SDS011;11039;50.028;19.938;2023-04-24T00:56:25;7.75;;;6.63;;
21754;SDS011;11039;50.028;19.938;2023-04-24T00:58:51;9.98;;;6.50;;
21754;SDS011;11039;50.028;19.938;2023-04-24T01:01:21;10.27;;;6.80;;
21754;SDS011;11039;50.028;19.938;2023-04-24T01:03:48;9.82;;;6.43;;
21754;SDS011;11039;50.028;19.938;2023-04-24T01:06:15;9.23;;;6.35;;
21754;SDS011;11039;50.028;19.938;2023-04-24T01:08:41;9.27;;;6.65;;
21754;SDS011;11039;50.028;19.938;2023-04-24T01:11:07;11.40;;;6.45;;
21754;SDS011;11039;50.028;19.938;2023-04-24T01:13:33;9.32;;;6.50;;
21754;SDS011;11039;50.028;19.938;2023-04-24T01:16:00;10.20;;;6.93;;
21754;SDS011;11039;50.028;19.938;2023-04-24T01:18:26;9.00;;;6.55;;
21754;SDS011;11039;50.028;19.938;2023-04-24T01:20:53;13.35;;;6.70;;
21754;SDS011;11039;50.028;19.938;2023-04-24T01:23:19;9.00;;;6.22;;
21754;SDS011;11039;50.028;19.938;2023-04-24T01:25:45;12.43;;;6.63;;
21754;SDS011;11039;50.028;19.938;2023-04-24T01:28:12;12.15;;;6.43;;
21754;SDS011;11039;50.028;19.938;2023-04-24T01:30:39;12.98;;;6.30;;
21754;SDS011;11039;50.028;19.938;2023-04-24T01:33:05;8.73;;;5.88;;
21754;SDS011;11039;50.028;19.938;2023-04-24T01:35:31;9.75;;;6.95;;
21754;SDS011;11039;50.028;19.938;2023-04-24T01:37:57;8.10;;;6.15;;
21754;SDS011;11039;50.028;19.938;2023-04-24T01:40:23;8.68;;;6.55;;
21754;SDS011;11039;50.028;19.938;2023-04-24T01:42:49;11.30;;;6.53;;
21754;SDS011;11039;50.028;19.938;2023-04-24T01:45:16;10.05;;;6.10;;
21754;SDS011;11039;50.028;19.938;2023-04-24T01:47:42;9.02;;;6.88;;
21754;SDS011;11039;50.028;19.938;2023-04-24T01:50:08;9.88;;;6.57;;
21754;SDS011;11039;50.028;19.938;2023-04-24T01:52:35;8.52;;;6.40;;
21754;SDS011;11039;50.028;19.938;2023-04-24T01:55:01;7.57;;;6.63;;
21754;SDS011;11039;50.028;19.938;2023-04-24T01:57:27;7.60;;;6.20;;
21754;SDS011;11039;50.028;19.938;2023-04-24T01:59:55;8.68;;;6.03;;
21754;SDS011;11039;50.028;19.938;2023-04-24T02:02:21;8.68;;;6.70;;
21754;SDS011;11039;50.028;19.938;2023-04-24T02:04:49;11.40;;;7.00;;
21754;SDS011;11039;50.028;19.938;2023-04-24T02:07:15;9.18;;;6.50;;
21754;SDS011;11039;50.028;19.938;2023-04-24T02:09:41;7.72;;;5.93;;
21754;SDS011;11039;50.028;19.938;2023-04-24T02:12:07;10.65;;;7.03;;
21754;SDS011;11039;50.028;19.938;2023-04-24T02:14:33;9.27;;;6.47;;
21754;SDS011;11039;50.028;19.938;2023-04-24T02:16:59;8.88;;;6.18;;
21754;SDS011;11039;50.028;19.938;2023-04-24T02:19:26;10.52;;;6.85;;
21754;SDS011;11039;50.028;19.938;2023-04-24T02:21:52;10.30;;;6.57;;
21754;SDS011;11039;50.028;19.938;2023-04-24T02:24:18;10.02;;;6.63;;
21754;SDS011;11039;50.028;19.938;2023-04-24T02:26:44;9.30;;;6.78;;
21754;SDS011;11039;50.028;19.938;2023-04-24T02:29:10;7.82;;;5.95;;
21754;SDS011;11039;50.028;19.938;2023-04-24T02:31:36;13.25;;;6.72;;
21754;SDS011;11039;50.028;19.938;2023-04-24T02:34:02;9.68;;;6.90;;
21754;SDS011;11039;50.028;19.938;2023-04-24T02:36:28;10.18;;;6.80;;
21754;SDS011;11039;50.028;19.938;2023-04-24T02:38:55;9.98;;;6.20;;
21754;SDS011;11039;50.028;19.938;2023-04-24T02:41:21;10.52;;;7.00;;
21754;SDS011;11039;50.028;19.938;2023-04-24T02:43:47;10.10;;;6.93;;
21754;SDS011;11039;50.028;19.938;2023-04-24T02:46:13;12.20;;;6.60;;
21754;SDS011;11039;50.028;19.938;2023-04-24T02:48:39;10.57;;;5.93;;
21754;SDS011;11039;50.028;19.938;2023-04-24T02:51:05;11.73;;;7.38;;
21754;SDS011;11039;50.028;19.938;2023-04-24T02:53:31;14.45;;;6.80;;
21754;SDS011;11039;50.028;19.938;2023-04-24T02:55:57;10.88;;;7.35;;
21754;SDS011;11039;50.028;19.938;2023-04-24T02:58:24;12.85;;;7.28;;
21754;SDS011;11039;50.028;19.938;2023-04-24T03:00:53;12.85;;;7.38;;
21754;SDS011;11039;50.028;19.938;2023-04-24T03:03:20;11.70;;;6.35;;
21754;SDS011;11039;50.028;19.938;2023-04-24T03:05:46;8.77;;;6.00;;
21754;SDS011;11039;50.028;19.938;2023-04-24T03:08:12;9.80;;;6.45;;
21754;SDS011;11039;50.028;19.938;2023-04-24T03:10:39;9.02;;;6.18;;
21754;SDS011;11039;50.028;19.938;2023-04-24T03:13:05;13.57;;;7.05;;
21754;SDS011;11039;50.028;19.938;2023-04-24T03:15:31;9.30;;;6.03;;
21754;SDS011;11039;50.028;19.938;2023-04-24T03:17:57;11.88;;;6.97;;
21754;SDS011;11039;50.028;19.938;2023-04-24T03:20:23;8.00;;;6.60;;
21754;SDS011;11039;50.028;19.938;2023-04-24T03:22:49;9.38;;;6.10;;
21754;SDS011;11039;50.028;19.938;2023-04-24T03:25:15;11.68;;;6.28;;
21754;SDS011;11039;50.028;19.938;2023-04-24T03:27:41;9.55;;;6.45;;
21754;SDS011;11039;50.028;19.938;2023-04-24T03:30:07;10.07;;;6.57;;
21754;SDS011;11039;50.028;19.938;2023-04-24T03:32:34;12.50;;;6.88;;
21754;SDS011;11039;50.028;19.938;2023-04-24T03:35:00;10.30;;;7.15;;
21754;SDS011;11039;50.028;19.938;2023-04-24T03:37:26;9.95;;;6.85;;
21754;SDS011;11039;50.028;19.938;2023-04-24T03:39:52;11.75;;;7.05;;
21754;SDS011;11039;50.028;19.938;2023-04-24T03:42:18;10.80;;;6.30;;
21754;SDS011;11039;50.028;19.938;2023-04-24T03:44:44;13.95;;;7.30;;
21754;SDS011;11039;50.028;19.938;2023-04-24T03:47:10;10.38;;;6.53;;
21754;SDS011;11039;50.028;19.938;2023-04-24T03:49:36;12.30;;;6.75;;
21754;SDS011;11039;50.028;19.938;2023-04-24T03:52:02;15.88;;;6.90;;
21754;SDS011;11039;50.028;19.938;2023-04-24T03:54:28;10.60;;;6.40;;
21754;SDS011;11039;50.028;19.938;2023-04-24T03:56:54;14.82;;;6.68;;
21754;SDS011;11039;50.028;19.938;2023-04-24T03:59:20;10.15;;;6.50;;
21754;SDS011;11039;50.028;19.938;2023-04-24T04:01:47;11.35;;;6.32;;
21754;SDS011;11039;50.028;19.938;2023-04-24T04:04:13;11.55;;;6.90;;
21754;SDS011;11039;50.028;19.938;2023-04-24T04:06:40;15.02;;;7.60;;
21754;SDS011;11039;50.028;19.938;2023-04-24T04:09:06;15.95;;;7.50;;
21754;SDS011;11039;50.028;19.938;2023-04-24T04:11:33;17.50;;;7.65;;
21754;SDS011;11039;50.028;19.938;2023-04-24T04:14:00;15.30;;;7.13;;
21754;SDS011;11039;50.028;19.938;2023-04-24T04:16:26;15.45;;;7.72;;
21754;SDS011;11039;50.028;19.938;2023-04-24T04:18:52;11.93;;;6.72;;
21754;SDS011;11039;50.028;19.938;2023-04-24T04:21:18;14.45;;;7.43;;
21754;SDS011;11039;50.028;19.938;2023-04-24T04:23:44;15.20;;;7.50;;
21754;SDS011;11039;50.028;19.938;2023-04-24T04:26:10;14.43;;;7.78;;
21754;SDS011;11039;50.028;19.938;2023-04-24T04:28:37;11.38;;;7.80;;
21754;SDS011;11039;50.028;19.938;2023-04-24T04:31:04;16.08;;;8.07;;
21754;SDS011;11039;50.028;19.938;2023-04-24T04:33:30;14.55;;;7.88;;
21754;SDS011;11039;50.028;19.938;2023-04-24T04:35:56;13.98;;;8.52;;
21754;SDS011;11039;50.028;19.938;2023-04-24T04:38:23;16.52;;;8.23;;
21754;SDS011;11039;50.028;19.938;2023-04-24T04:40:51;14.82;;;7.93;;
21754;SDS011;11039;50.028;19.938;2023-04-24T04:43:17;16.13;;;8.20;;
21754;SDS011;11039;50.028;19.938;2023-04-24T04:45:43;12.27;;;7.85;;
21754;SDS011;11039;50.028;19.938;2023-04-24T04:48:09;14.40;;;7.88;;
21754;SDS011;11039;50.028;19.938;2023-04-24T04:50:38;13.90;;;8.13;;
21754;SDS011;11039;50.028;19.938;2023-04-24T04:53:04;15.88;;;7.63;;
21754;SDS011;11039;50.028;19.938;2023-04-24T04:55:30;15.23;;;7.97;;
21754;SDS011;11039;50.028;19.938;2023-04-24T04:57:56;15.77;;;8.50;;
21754;SDS011;11039;50.028;19.938;2023-04-24T05:00:22;13.85;;;8.07;;
21754;SDS011;11039;50.028;19.938;2023-04-24T05:02:50;13.70;;;8.10;;
21754;SDS011;11039;50.028;19.938;2023-04-24T05:05:16;20.23;;;9.10;;
21754;SDS011;11039;50.028;19.938;2023-04-24T05:07:43;17.15;;;8.93;;
21754;SDS011;11039;50.028;19.938;2023-04-24T05:10:09;18.88;;;9.07;;
21754;SDS011;11039;50.028;19.938;2023-04-24T05:12:35;18.38;;;8.55;;
21754;SDS011;11039;50.028;19.938;2023-04-24T05:15:01;19.98;;;9.40;;
21754;SDS011;11039;50.028;19.938;2023-04-24T05:17:28;16.35;;;8.57;;
21754;SDS011;11039;50.028;19.938;2023-04-24T05:19:54;16.27;;;8.43;;
21754;SDS011;11039;50.028;19.938;2023-04-24T05:22:20;20.25;;;9.25;;
21754;SDS011;11039;50.028;19.938;2023-04-24T05:24:46;15.50;;;8.23;;
21754;SDS011;11039;50.028;19.938;2023-04-24T05:27:13;14.90;;;8.70;;
21754;SDS011;11039;50.028;19.938;2023-04-24T05:29:39;16.00;;;8.23;;
21754;SDS011;11039;50.028;19.938;2023-04-24T05:32:05;16.42;;;9.00;;
21754;SDS011;11039;50.028;19.938;2023-04-24T05:34:31;14.60;;;8.50;;
21754;SDS011;11039;50.028;19.938;2023-04-24T05:36:57;15.18;;;9.05;;
21754;SDS011;11039;50.028;19.938;2023-04-24T05:39:23;15.73;;;8.40;;
21754;SDS011;11039;50.028;19.938;2023-04-24T05:41:50;11.73;;;7.97;;
21754;SDS011;11039;50.028;19.938;2023-04-24T05:44:16;13.98;;;8.15;;
21754;SDS011;11039;50.028;19.938;2023-04-24T05:46:42;14.63;;;8.45;;
21754;SDS011;11039;50.028;19.938;2023-04-24T05:49:08;17.75;;;7.82;;
21754;SDS011;11039;50.028;19.938;2023-04-24T05:51:34;12.52;;;7.43;;
21754;SDS011;11039;50.028;19.938;2023-04-24T05:54:00;13.13;;;7.80;;
21754;SDS011;11039;50.028;19.938;2023-04-24T05:56:28;14.02;;;7.95;;
21754;SDS011;11039;50.028;19.938;2023-04-24T05:58:54;16.48;;;7.72;;
21754;SDS011;11039;50.028;19.938;2023-04-24T06:01:20;10.55;;;7.35;;
21754;SDS011;11039;50.028;19.938;2023-04-24T06:03:46;13.00;;;7.55;;
21754;SDS011;11039;50.028;19.938;2023-04-24T06:06:12;13.90;;;7.38;;
21754;SDS011;11039;50.028;19.938;2023-04-24T06:08:38;12.15;;;7.03;;
21754;SDS011;11039;50.028;19.938;2023-04-24T06:11:05;13.90;;;7.40;;
21754;SDS011;11039;50.028;19.938;2023-04-24T06:13:31;11.15;;;7.18;;
21754;SDS011;11039;50.028;19.938;2023-04-24T06:15:57;11.90;;;7.47;;
21754;SDS011;11039;50.028;19.938;2023-04-24T06:18:23;11.95;;;6.97;;
21754;SDS011;11039;50.028;19.938;2023-04-24T06:20:49;10.48;;;7.03;;
21754;SDS011;11039;50.028;19.938;2023-04-24T06:23:15;14.35;;;7.03;;
21754;SDS011;11039;50.028;19.938;2023-04-24T06:25:41;11.77;;;7.03;;
21754;SDS011;11039;50.028;19.938;2023-04-24T06:28:07;15.30;;;7.30;;
21754;SDS011;11039;50.028;19.938;2023-04-24T06:30:33;9.40;;;6.78;;
21754;SDS011;11039;50.028;19.938;2023-04-24T06:32:59;16.80;;;6.88;;
21754;SDS011;11039;50.028;19.938;2023-04-24T06:35:25;11.82;;;7.60;;
21754;SDS011;11039;50.028;19.938;2023-04-24T06:37:51;19.55;;;6.72;;
21754;SDS011;11039;50.028;19.938;2023-04-24T06:40:17;10.15;;;6.05;;
21754;SDS011;11039;50.028;19.938;2023-04-24T06:42:46;12.40;;;6.85;;
21754;SDS011;11039;50.028;19.938;2023-04-24T06:45:12;11.32;;;6.45;;
21754;SDS011;11039;50.028;19.938;2023-04-24T06:47:38;12.10;;;6.40;;
21754;SDS011;11039;50.028;19.938;2023-04-24T06:50:04;11.05;;;5.63;;
21754;SDS011;11039;50.028;19.938;2023-04-24T06:52:30;11.50;;;6.13;;
21754;SDS011;11039;50.028;19.938;2023-04-24T06:55:01;10.05;;;6.35;;
21754;SDS011;11039;50.028;19.938;2023-04-24T06:57:27;11.73;;;6.45;;
21754;SDS011;11039;50.028;19.938;2023-04-24T06:59:53;9.88;;;6.13;;
21754;SDS011;11039;50.028;19.938;2023-04-24T07:02:20;11.15;;;6.45;;
21754;SDS011;11039;50.028;19.938;2023-04-24T07:04:46;12.00;;;6.43;;
21754;SDS011;11039;50.028;19.938;2023-04-24T07:07:12;14.55;;;7.00;;
21754;SDS011;11039;50.028;19.938;2023-04-24T07:09:41;13.65;;;6.13;;
21754;SDS011;11039;50.028;19.938;2023-04-24T07:12:09;11.45;;;6.35;;
21754;SDS011;11039;50.028;19.938;2023-04-24T07:14:35;12.80;;;5.90;;
21754;SDS011;11039;50.028;19.938;2023-04-24T07:17:02;14.57;;;6.20;;
21754;SDS011;11039;50.028;19.938;2023-04-24T07:19:28;9.23;;;6.05;;
21754;SDS011;11039;50.028;19.938;2023-04-24T07:21:54;9.98;;;6.53;;
21754;SDS011;11039;50.028;19.938;2023-04-24T07:24:20;11.27;;;6.22;;
21754;SDS011;11039;50.028;19.938;2023-04-24T07:26:46;12.20;;;6.25;;
21754;SDS011;11039;50.028;19.938;2023-04-24T07:29:13;12.00;;;6.28;;
21754;SDS011;11039;50.028;19.938;2023-04-24T07:31:39;12.65;;;6.18;;
21754;SDS011;11039;50.028;19.938;2023-04-24T07:34:06;10.38;;;5.70;;
21754;SDS011;11039;50.028;19.938;2023-04-24T07:36:32;10.15;;;6.25;;
21754;SDS011;11039;50.028;19.938;2023-04-24T07:38:58;12.40;;;6.93;;
21754;SDS011;11039;50.028;19.938;2023-04-24T07:41:24;14.27;;;6.68;;
21754;SDS011;11039;50.028;19.938;2023-04-24T07:43:52;11.88;;;6.18;;
21754;SDS011;11039;50.028;19.938;2023-04-24T07:46:18;11.65;;;5.78;;
21754;SDS011;11039;50.028;19.938;2023-04-24T07:48:45;9.98;;;5.75;;
21754;SDS011;11039;50.028;19.938;2023-04-24T07:51:13;10.98;;;5.35;;
21754;SDS011;11039;50.028;19.938;2023-04-24T07:53:39;7.00;;;5.40;;
21754;SDS011;11039;50.028;19.938;2023-04-24T07:56:05;7.07;;;4.68;;
21754;SDS011;11039;50.028;19.938;2023-04-24T07:58:31;7.07;;;4.32;;
21754;SDS011;11039;50.028;19.938;2023-04-24T08:00:58;7.28;;;4.30;;
21754;SDS011;11039;50.028;19.938;2023-04-24T08:03:24;6.50;;;4.70;;
21754;SDS011;11039;50.028;19.938;2023-04-24T08:05:50;6.85;;;4.20;;
21754;SDS011;11039;50.028;19.938;2023-04-24T08:08:16;7.00;;;4.35;;
21754;SDS011;11039;50.028;19.938;2023-04-24T08:10:42;7.07;;;4.35;;
21754;SDS011;11039;50.028;19.938;2023-04-24T08:13:08;8.10;;;4.50;;
21754;SDS011;11039;50.028;19.938;2023-04-24T08:15:36;7.45;;;4.40;;
21754;SDS011;11039;50.028;19.938;2023-04-24T08:18:02;4.95;;;4.32;;
21754;SDS011;11039;50.028;19.938;2023-04-24T08:20:28;6.20;;;4.32;;
21754;SDS011;11039;50.028;19.938;2023-04-24T08:22:54;5.80;;;4.00;;
21754;SDS011;11039;50.028;19.938;2023-04-24T08:25:21;5.63;;;4.32;;
21754;SDS011;11039;50.028;19.938;2023-04-24T08:27:49;6.15;;;4.03;;
21754;SDS011;11039;50.028;19.938;2023-04-24T08:30:15;4.85;;;4.15;;
21754;SDS011;11039;50.028;19.938;2023-04-24T08:32:42;4.60;;;3.78;;
21754;SDS011;11039;50.028;19.938;2023-04-24T08:35:08;6.78;;;3.88;;
21754;SDS011;11039;50.028;19.938;2023-04-24T08:37:34;4.70;;;4.13;;
21754;SDS011;11039;50.028;19.938;2023-04-24T08:40:01;4.57;;;4.00;;
21754;SDS011;11039;50.028;19.938;2023-04-24T08:42:31;5.13;;;3.53;;
21754;SDS011;11039;50.028;19.938;2023-04-24T08:44:59;5.80;;;4.18;;
21754;SDS011;11039;50.028;19.938;2023-04-24T08:47:25;6.85;;;3.90;;
21754;SDS011;11039;50.028;19.938;2023-04-24T08:49:52;5.68;;;4.00;;
21754;SDS011;11039;50.028;19.938;2023-04-24T08:52:19;4.95;;;3.78;;
21754;SDS011;11039;50.028;19.938;2023-04-24T08:54:47;4.80;;;4.30;;
21754;SDS011;11039;50.028;19.938;2023-04-24T08:57:13;4.97;;;4.00;;
21754;SDS011;11039;50.028;19.938;2023-04-24T08:59:40;4.32;;;3.72;;
21754;SDS011;11039;50.028;19.938;2023-04-24T09:02:06;5.43;;;4.40;;
21754;SDS011;11039;50.028;19.938;2023-04-24T09:04:35;5.60;;;4.10;;
21754;SDS011;11039;50.028;19.938;2023-04-24T09:07:01;4.88;;;4.32;;
21754;SDS011;11039;50.028;19.938;2023-04-24T09:09:28;5.25;;;3.25;;
21754;SDS011;11039;50.028;19.938;2023-04-24T09:11:56;4.82;;;3.75;;
21754;SDS011;11039;50.028;19.938;2023-04-24T09:14:22;5.00;;;4.05;;
21754;SDS011;11039;50.028;19.938;2023-04-24T09:16:49;5.53;;;4.30;;
21754;SDS011;11039;50.028;19.938;2023-04-24T09:19:15;7.05;;;3.95;;
21754;SDS011;11039;50.028;19.938;2023-04-24T09:21:41;6.88;;;4.00;;
21754;SDS011;11039;50.028;19.938;2023-04-24T09:24:17;5.18;;;3.92;;
21754;SDS011;11039;50.028;19.938;2023-04-24T09:26:45;5.15;;;3.45;;
21754;SDS011;11039;50.028;19.938;2023-04-24T09:29:15;5.15;;;3.95;;
21754;SDS011;11039;50.028;19.938;2023-04-24T09:31:42;5.93;;;3.70;;
21754;SDS011;11039;50.028;19.938;2023-04-24T09:34:08;3.90;;;3.50;;
21754;SDS011;11039;50.028;19.938;2023-04-24T09:36:35;5.07;;;3.28;;
21754;SDS011;11039;50.028;19.938;2023-04-24T09:39:03;8.68;;;3.53;;
21754;SDS011;11039;50.028;19.938;2023-04-24T09:41:31;4.95;;;3.60;;
21754;SDS011;11039;50.028;19.938;2023-04-24T09:43:58;6.80;;;3.80;;
21754;SDS011;11039;50.028;19.938;2023-04-24T09:46:36;4.25;;;3.65;;
21754;SDS011;11039;50.028;19.938;2023-04-24T09:49:14;5.72;;;3.67;;
21754;SDS011;11039;50.028;19.938;2023-04-24T09:51:41;3.47;;;3.17;;
21754;SDS011;11039;50.028;19.938;2023-04-24T09:54:17;4.32;;;3.65;;
21754;SDS011;11039;50.028;19.938;2023-04-24T09:56:45;4.70;;;3.65;;
21754;SDS011;11039;50.028;19.938;2023-04-24T09:59:13;4.38;;;3.33;;
21754;SDS011;11039;50.028;19.938;2023-04-24T10:01:45;4.22;;;3.72;;
21754;SDS011;11039;50.028;19.938;2023-04-24T10:06:43;4.55;;;3.55;;
21754;SDS011;11039;50.028;19.938;2023-04-24T10:09:09;3.58;;;3.28;;
21754;SDS011;11039;50.028;19.938;2023-04-24T10:11:42;4.93;;;3.40;;
21754;SDS011;11039;50.028;19.938;2023-04-24T10:14:18;3.70;;;3.33;;
21754;SDS011;11039;50.028;19.938;2023-04-24T10:16:45;5.07;;;3.50;;
21754;SDS011;11039;50.028;19.938;2023-04-24T10:19:15;4.65;;;3.33;;
21754;SDS011;11039;50.028;19.938;2023-04-24T10:21:41;4.40;;;3.38;;
21754;SDS011;11039;50.028;19.938;2023-04-24T10:24:11;5.00;;;3.05;;
21754;SDS011;11039;50.028;19.938;2023-04-24T10:26:37;6.13;;;3.88;;
21754;SDS011;11039;50.028;19.938;2023-04-24T10:29:05;3.40;;;3.10;;
21754;SDS011;11039;50.028;19.938;2023-04-24T10:31:35;4.05;;;3.22;;
21754;SDS011;11039;50.028;19.938;2023-04-24T10:34:02;4.28;;;3.33;;
21754;SDS011;11039;50.028;19.938;2023-04-24T10:36:29;4.53;;;3.83;;
21754;SDS011;11039;50.028;19.938;2023-04-24T10:38:57;4.82;;;3.60;;
21754;SDS011;11039;50.028;19.938;2023-04-24T10:41:25;4.63;;;3.60;;
21754;SDS011;11039;50.028;19.938;2023-04-24T10:44:13;4.40;;;3.53;;
21754;SDS011;11039;50.028;19.938;2023-04-24T10:46:42;4.18;;;3.35;;
21754;SDS011;11039;50.028;19.938;2023-04-24T10:49:09;4.72;;;3.95;;
21754;SDS011;11039;50.028;19.938;2023-04-24T10:56:48;4.00;;;3.60;;
21754;SDS011;11039;50.028;19.938;2023-04-24T10:59:23;5.95;;;3.63;;
21754;SDS011;11039;50.028;19.938;2023-04-24T11:01:53;4.65;;;3.60;;
21754;SDS011;11039;50.028;19.938;2023-04-24T11:04:29;3.78;;;3.30;;
21754;SDS011;11039;50.028;19.938;2023-04-24T11:06:55;5.18;;;3.60;;
21754;SDS011;11039;50.028;19.938;2023-04-24T11:09:21;3.55;;;3.25;;
21754;SDS011;11039;50.028;19.938;2023-04-24T11:11:47;4.07;;;3.70;;
21754;SDS011;11039;50.028;19.938;2023-04-24T11:14:14;3.92;;;3.40;;
21754;SDS011;11039;50.028;19.938;2023-04-24T11:16:53;7.03;;;3.63;;
21754;SDS011;11039;50.028;19.938;2023-04-24T11:19:23;4.85;;;3.58;;
21754;SDS011;11039;50.028;19.938;2023-04-24T11:22:02;4.72;;;3.50;;
21754;SDS011;11039;50.028;19.938;2023-04-24T11:27:13;4.38;;;3.97;;
21754;SDS011;11039;50.028;19.938;2023-04-24T11:29:41;5.13;;;3.95;;
21754;SDS011;11039;50.028;19.938;2023-04-24T11:32:30;4.72;;;3.60;;
21754;SDS011;11039;50.028;19.938;2023-04-24T11:35:00;6.05;;;3.65;;
21754;SDS011;11039;50.028;19.938;2023-04-24T11:37:33;4.40;;;3.40;;
21754;SDS011;11039;50.028;19.938;2023-04-24T11:40:00;5.10;;;4.22;;
21754;SDS011;11039;50.028;19.938;2023-04-24T11:42:26;4.00;;;3.65;;
21754;SDS011;11039;50.028;19.938;2023-04-24T11:44:53;4.90;;;3.63;;
21754;SDS011;11039;50.028;19.938;2023-04-24T11:47:28;5.93;;;3.92;;
21754;SDS011;11039;50.028;19.938;2023-04-24T11:49:55;6.30;;;3.83;;
21754;SDS011;11039;50.028;19.938;2023-04-24T11:52:21;4.38;;;3.60;;
21754;SDS011;11039;50.028;19.938;2023-04-24T11:54:50;4.70;;;3.50;;
21754;SDS011;11039;50.028;19.938;2023-04-24T11:57:16;4.72;;;4.20;;
21754;SDS011;11039;50.028;19.938;2023-04-24T11:59:44;4.65;;;4.00;;
21754;SDS011;11039;50.028;19.938;2023-04-24T12:02:21;4.32;;;3.67;;
21754;SDS011;11039;50.028;19.938;2023-04-24T12:04:47;4.35;;;3.78;;
21754;SDS011;11039;50.028;19.938;2023-04-24T12:07:13;5.13;;;4.28;;
21754;SDS011;11039;50.028;19.938;2023-04-24T12:09:40;5.38;;;4.10;;
21754;SDS011;11039;50.028;19.938;2023-04-24T12:12:07;6.18;;;3.97;;
21754;SDS011;11039;50.028;19.938;2023-04-24T12:14:33;4.10;;;3.70;;
21754;SDS011;11039;50.028;19.938;2023-04-24T12:17:07;4.22;;;3.42;;
21754;SDS011;11039;50.028;19.938;2023-04-24T12:19:33;6.57;;;3.80;;
21754;SDS011;11039;50.028;19.938;2023-04-24T12:22:02;6.78;;;4.00;;
21754;SDS011;11039;50.028;19.938;2023-04-24T12:24:28;4.57;;;3.80;;
21754;SDS011;11039;50.028;19.938;2023-04-24T12:26:55;6.05;;;3.80;;
21754;SDS011;11039;50.028;19.938;2023-04-24T12:29:23;4.80;;;3.78;;
21754;SDS011;11039;50.028;19.938;2023-04-24T12:31:49;4.55;;;3.60;;
21754;SDS011;11039;50.028;19.938;2023-04-24T12:34:19;5.70;;;3.88;;
21754;SDS011;11039;50.028;19.938;2023-04-24T12:36:45;6.18;;;3.70;;
21754;SDS011;11039;50.028;19.938;2023-04-24T12:39:15;6.13;;;3.60;;
21754;SDS011;11039;50.028;19.938;2023-04-24T12:41:55;6.05;;;3.83;;
21754;SDS011;11039;50.028;19.938;2023-04-24T12:44:31;4.00;;;3.58;;
21754;SDS011;11039;50.028;19.938;2023-04-24T12:46:59;5.60;;;4.13;;
21754;SDS011;11039;50.028;19.938;2023-04-24T12:49:25;5.40;;;4.07;;
21754;SDS011;11039;50.028;19.938;2023-04-24T12:51:51;8.25;;;5.15;;
21754;SDS011;11039;50.028;19.938;2023-04-24T12:54:17;6.07;;;4.25;;
21754;SDS011;11039;50.028;19.938;2023-04-24T12:56:43;6.05;;;4.30;;
21754;SDS011;11039;50.028;19.938;2023-04-24T12:59:09;5.90;;;4.45;;
21754;SDS011;11039;50.028;19.938;2023-04-24T13:01:35;4.85;;;4.30;;
21754;SDS011;11039;50.028;19.938;2023-04-24T13:04:01;5.68;;;4.80;;
21754;SDS011;11039;50.028;19.938;2023-04-24T13:06:27;5.55;;;4.93;;
21754;SDS011;11039;50.028;19.938;2023-04-24T13:08:53;6.75;;;5.45;;
21754;SDS011;11039;50.028;19.938;2023-04-24T13:11:21;6.28;;;5.05;;
21754;SDS011;11039;50.028;19.938;2023-04-24T13:13:47;9.02;;;4.90;;
21754;SDS011;11039;50.028;19.938;2023-04-24T13:16:13;6.28;;;4.47;;
21754;SDS011;11039;50.028;19.938;2023-04-24T13:18:40;7.10;;;4.55;;
21754;SDS011;11039;50.028;19.938;2023-04-24T13:21:06;9.40;;;4.80;;
21754;SDS011;11039;50.028;19.938;2023-04-24T13:23:32;6.13;;;4.20;;
21754;SDS011;11039;50.028;19.938;2023-04-24T13:25:58;6.93;;;4.35;;
21754;SDS011;11039;50.028;19.938;2023-04-24T13:28:24;5.55;;;4.00;;
21754;SDS011;11039;50.028;19.938;2023-04-24T13:30:51;6.15;;;4.40;;
21754;SDS011;11039;50.028;19.938;2023-04-24T13:33:17;6.75;;;4.20;;
21754;SDS011;11039;50.028;19.938;2023-04-24T13:35:43;6.07;;;3.78;;
21754;SDS011;11039;50.028;19.938;2023-04-24T13:38:09;4.40;;;3.70;;
21754;SDS011;11039;50.028;19.938;2023-04-24T13:40:35;4.40;;;3.97;;
21754;SDS011;11039;50.028;19.938;2023-04-24T13:43:01;6.32;;;4.30;;
21754;SDS011;11039;50.028;19.938;2023-04-24T13:45:27;5.93;;;4.15;;
21754;SDS011;11039;50.028;19.938;2023-04-24T13:47:54;4.57;;;3.83;;
21754;SDS011;11039;50.028;19.938;2023-04-24T13:50:21;5.10;;;3.90;;
21754;SDS011;11039;50.028;19.938;2023-04-24T13:52:48;5.80;;;4.40;;
21754;SDS011;11039;50.028;19.938;2023-04-24T13:55:14;4.22;;;3.65;;
21754;SDS011;11039;50.028;19.938;2023-04-24T13:57:40;6.97;;;4.25;;
21754;SDS011;11039;50.028;19.938;2023-04-24T14:00:06;4.90;;;3.78;;
21754;SDS011;11039;50.028;19.938;2023-04-24T14:02:34;6.60;;;4.03;;
21754;SDS011;11039;50.028;19.938;2023-04-24T14:05:00;4.78;;;3.60;;
21754;SDS011;11039;50.028;19.938;2023-04-24T14:07:26;6.55;;;3.65;;
21754;SDS011;11039;50.028;19.938;2023-04-24T14:09:53;4.50;;;3.83;;
21754;SDS011;11039;50.028;19.938;2023-04-24T14:12:19;4.50;;;3.50;;
21754;SDS011;11039;50.028;19.938;2023-04-24T14:14:46;5.35;;;3.63;;
21754;SDS011;11039;50.028;19.938;2023-04-24T14:17:13;5.30;;;3.88;;
21754;SDS011;11039;50.028;19.938;2023-04-24T14:19:39;5.10;;;3.95;;
21754;SDS011;11039;50.028;19.938;2023-04-24T14:22:05;5.25;;;3.60;;
21754;SDS011;11039;50.028;19.938;2023-04-24T14:24:32;5.85;;;3.80;;
21754;SDS011;11039;50.028;19.938;2023-04-24T14:26:58;5.18;;;4.07;;
21754;SDS011;11039;50.028;19.938;2023-04-24T14:29:24;4.10;;;3.50;;
21754;SDS011;11039;50.028;19.938;2023-04-24T14:31:51;5.45;;;3.28;;
21754;SDS011;11039;50.028;19.938;2023-04-24T14:34:17;4.78;;;3.60;;
21754;SDS011;11039;50.028;19.938;2023-04-24T14:36:43;3.67;;;3.38;;